Latest Weather Observations for Canterbury

IDN60801

Issued at 3:03 pm EST Saturday 2 July 2016 (issued every 30 minutes, with the page automatically refreshed every 10 minutes)

About weather observations | Map of weather stations | Latest weather observations for NSW | Other Formats
Station Details ID: 066194 Name: CANTERBURY RACECOURSE AWS Lat: -33.91 Lon: 151.11 Height: 3.0 m
Data from the previous 72 hours. | See also: Recent months at Canterbury
Date/Time
EST
Temp
°C
App
Temp
°C
Dew
Point
°C
Rel
Hum
%
Delta-T
°C
Wind Press
QNH
hPa
Press
MSL
hPa
Rain since
9am
mm
Dir  Spd
km/h
Gust
km/h
Spd
kts
Gust
kts
02/03:00pm 17.2 12.7 2.4 37 6.7 W 15 15 8 8 - - 0.0
02/02:30pm 17.1 12.3 2.7 38 6.6 WSW 17 26 9 14 - - 0.0
02/02:00pm 17.0 13.0 2.6 38 6.5 SW 13 24 7 13 - - 0.0
02/01:30pm 17.0 13.0 3.0 39 6.4 WSW 13 20 7 11 - - 0.0
02/01:00pm 16.6 12.3 3.0 40 6.2 WSW 15 30 8 16 - - 0.0
02/12:30pm 16.4 12.3 4.1 44 5.7 WSW 15 22 8 12 - - 0.0
02/12:00pm 15.8 11.2 3.6 44 5.6 WSW 17 28 9 15 - - 0.0
02/11:30am 14.9 9.9 3.4 46 5.2 WSW 19 28 10 15 - - 0.0
02/11:00am 14.5 9.9 3.6 48 4.9 WSW 17 26 9 14 - - 0.0
02/10:30am 13.6 9.9 4.2 53 4.3 W 13 19 7 10 - - 0.0
02/10:00am 12.6 8.8 3.8 55 3.9 W 13 19 7 10 - - 0.0
02/09:30am 11.7 7.9 4.0 59 3.4 W 13 20 7 11 - - 0.0
02/09:00am 10.8 8.1 3.8 62 3.1 WNW 7 13 4 7 - - 0.0
02/08:30am 9.4 6.3 3.8 68 2.4 NW 9 11 5 6 - - 0.0
02/08:00am 7.8 5.2 3.3 73 1.9 WNW 6 9 3 5 - - 0.0
02/07:30am 4.8 2.0 3.0 88 0.7 NW 7 11 4 6 - - 0.0
02/07:00am 4.9 2.1 2.1 82 1.1 NW 6 9 3 5 - - 0.0
02/06:30am 4.9 2.9 2.3 83 1.0 WNW 2 7 1 4 - - 0.0
02/06:00am 6.2 3.5 2.7 78 1.4 NW 6 9 3 5 - - 0.0
02/05:30am 6.3 3.4 2.4 76 1.6 NW 7 11 4 6 - - 0.0
02/05:00am 6.6 3.7 2.5 75 1.7 NW 7 11 4 6 - - 0.0
02/04:30am 6.9 4.0 2.6 74 1.8 NNW 7 13 4 7 - - 0.0
02/04:00am 6.9 4.2 2.4 73 1.9 NW 6 11 3 6 - - 0.0
02/03:30am 7.3 4.0 2.6 72 2.0 WNW 9 13 5 7 - - 0.0
02/03:00am 7.5 4.2 2.6 71 2.0 WSW 9 17 5 9 - - 0.0
02/02:30am 7.8 4.9 2.7 70 2.1 W 7 11 4 6 - - 0.0
02/02:00am 8.4 4.8 2.8 68 2.4 WSW 11 19 6 10 - - 0.0
02/01:30am 8.5 5.3 2.9 68 2.4 WSW 9 17 5 9 - - 0.0
02/01:00am 9.1 5.1 3.1 66 2.6 WSW 13 20 7 11 - - 0.0
02/12:30am 8.8 5.6 3.0 67 2.5 WSW 9 15 5 8 - - 0.0
02/12:00am 8.4 5.2 3.1 69 2.3 WSW 9 15 5 8 - - 0.0
 
Date/Time
EST
Temp
°C
App
Temp
°C
Dew
Point
°C
Rel
Hum
%
Delta-T
°C
Wind Press
QNH
hPa
Press
MSL
hPa
Rain since
9am
mm
Dir  Spd
km/h
Gust
km/h
Spd
kts
Gust
kts
01/11:30pm 8.7 5.5 2.9 67 2.5 W 9 15 5 8 - - 0.0
01/11:00pm 9.0 5.4 3.0 66 2.6 WSW 11 15 6 8 - - 0.0
01/10:30pm 9.4 5.4 2.9 64 2.8 WSW 13 15 7 8 - - 0.0
01/10:00pm 9.8 5.8 2.9 62 3.0 WSW 13 17 7 9 - - 0.0
01/09:30pm 10.0 6.4 2.8 61 3.1 SW 11 17 6 9 - - 0.0
01/09:00pm 10.3 7.0 2.4 58 3.4 SW 9 15 5 8 - - 0.0
01/08:30pm 11.4 7.4 2.7 55 3.8 WSW 13 20 7 11 - - 0.0
01/08:00pm 11.8 7.4 2.5 53 4.0 WSW 15 24 8 13 - - 0.0
01/07:30pm 12.2 7.4 2.4 51 4.2 WSW 17 26 9 14 - - 0.0
01/07:00pm 12.5 7.7 2.4 50 4.4 WSW 17 26 9 14 - - 0.0
01/06:30pm 12.8 8.0 2.4 49 4.5 WSW 17 28 9 15 - - 0.0
01/06:00pm 13.0 9.2 2.0 47 4.8 W 11 19 6 10 - - 0.0
01/05:30pm 13.8 9.7 2.1 45 5.1 WSW 13 20 7 11 - - 0.0
01/05:00pm 14.3 10.5 1.9 43 5.4 W 11 20 6 11 - - 0.0
01/04:30pm 15.3 11.4 1.4 39 6.1 WSW 11 17 6 9 - - 0.0
01/04:00pm 15.8 11.1 1.2 37 6.4 WSW 15 24 8 13 - - 0.0
01/03:30pm 16.0 10.7 1.7 38 6.3 WSW 19 28 10 15 - - 0.0
01/03:00pm 16.3 11.3 1.2 36 6.6 WSW 17 30 9 16 - - 0.0
01/02:30pm 16.1 10.5 1.0 36 6.6 WSW 20 28 11 15 - - 0.0
01/02:00pm 15.8 10.2 1.2 37 6.4 WSW 20 32 11 17 - - 0.0
01/01:30pm 15.9 10.5 2.3 40 6.1 WSW 20 30 11 16 - - 0.0
01/01:00pm 15.3 9.4 1.4 39 6.1 WSW 22 32 12 17 - - 0.0
01/12:30pm 15.1 8.9 2.0 41 5.8 WSW 24 37 13 20 - - 0.0
01/12:00pm 15.2 9.0 2.4 42 5.7 WSW 24 37 13 20 - - 0.0
01/11:30am 14.7 9.8 1.9 42 5.6 WSW 17 30 9 16 - - 0.0
01/11:00am 14.1 8.6 1.7 43 5.4 WSW 20 32 11 17 - - 0.0
01/10:30am 13.7 8.1 1.0 42 5.4 W 20 30 11 16 - - 0.0
01/10:00am 13.1 7.7 1.5 45 5.0 W 19 35 10 19 - - 0.0
01/09:30am 12.2 7.6 1.5 48 4.5 WNW 15 24 8 13 - - 0.0
01/09:00am 10.7 7.0 2.3 56 3.6 NW 11 20 6 11 - - 0.0
01/08:30am 9.5 8.5 5.5 76 1.8 CALM 0 6 0 3 - - 0.0
01/08:00am 6.8 4.8 4.3 84 1.1 NNW 4 9 2 5 - - 0.0
01/07:30am 5.4 3.3 3.9 90 0.6 NNW 4 7 2 4 - - 0.0
01/07:00am 5.6 3.1 3.6 87 0.8 NNW 6 9 3 5 - - 0.0
01/06:30am 5.1 2.4 3.8 91 0.5 W 7 11 4 6 - - 0.0
01/06:00am 5.0 3.5 3.0 87 0.8 CALM 0 0 0 0 - - 0.0
01/05:30am 4.9 2.8 1.7 80 1.3 S 2 6 1 3 - - 0.0
01/05:00am 7.4 5.8 2.7 72 2.0 CALM 0 0 0 0 - - 0.0
01/04:30am 9.7 7.9 3.4 65 2.7 NNW 2 6 1 3 - - 0.0
01/04:00am 10.8 6.6 3.8 62 3.1 W 15 28 8 15 - - 0.0
01/03:30am 11.0 7.5 3.5 60 3.3 NW 11 19 6 10 - - 0.0
01/03:00am 11.8 6.8 3.8 58 3.6 NNW 19 33 10 18 - - 0.0
01/02:30am 11.8 6.8 3.6 57 3.6 NNW 19 28 10 15 - - 0.0
01/02:00am 12.4 7.2 3.6 55 3.9 NNW 20 33 11 18 - - 0.0
01/01:30am 12.1 6.9 3.3 55 3.9 NW 20 35 11 19 - - 0.0
01/01:00am 11.2 5.5 3.0 57 3.6 NW 22 35 12 19 - - 0.0
01/12:30am 11.3 6.2 2.9 56 3.7 NNW 19 26 10 14 - - 0.0
01/12:00am 11.0 6.2 2.6 56 3.6 NNW 17 24 9 13 - - 0.0
 
Date/Time
EST
Temp
°C
App
Temp
°C
Dew
Point
°C
Rel
Hum
%
Delta-T
°C
Wind Press
QNH
hPa
Press
MSL
hPa
Rain since
9am
mm
Dir  Spd
km/h
Gust
km/h
Spd
kts
Gust
kts
30/11:30pm 10.9 6.8 2.5 56 3.6 NNW 13 20 7 11 - - 0.0
30/11:00pm 11.0 7.3 2.1 54 3.8 NNW 11 19 6 10 - - 0.0
30/10:30pm 11.4 7.2 1.9 52 4.0 NNW 13 20 7 11 - - 0.0
30/10:00pm 12.0 7.1 1.9 50 4.3 NNW 17 24 9 13 - - 0.0
30/09:30pm 11.8 7.7 2.0 51 4.2 NNW 13 20 7 11 - - 0.0
30/09:00pm 11.9 7.7 1.8 50 4.3 NNW 13 17 7 9 - - 0.0
30/08:30pm 12.1 7.9 1.7 49 4.4 NNW 13 19 7 10 - - 0.0
30/08:00pm 12.4 8.2 1.4 47 4.7 NNW 13 22 7 12 - - 0.0
30/07:30pm 13.1 8.4 0.8 43 5.2 NNW 15 26 8 14 - - 0.0
30/07:00pm 13.5 8.4 0.5 41 5.5 NNW 17 30 9 16 - - 0.0
30/06:30pm 13.4 8.5 -0.6 38 5.7 NNW 15 24 8 13 - - 0.0
30/06:00pm 12.7 8.9 -0.9 39 5.5 N 9 13 5 7 - - 0.0
30/05:30pm 10.8 7.8 0.8 50 4.1 NW 6 7 3 4 - - 0.0
30/05:00pm 12.9 9.6 -1.4 37 5.7 NW 6 9 3 5 - - 0.0
30/04:30pm 13.9 10.4 -1.7 34 6.3 WNW 7 11 4 6 - - 0.0
30/04:00pm 14.4 10.0 -2.5 31 6.7 NW 11 19 6 10 - - 0.0
30/03:30pm 14.8 10.1 -1.7 32 6.7 NNW 13 24 7 13 - - 0.0
30/03:00pm 14.6 10.3 -1.9 32 6.7 NNW 11 20 6 11 - - 0.0
30/02:30pm 14.9 9.9 -1.2 33 6.6 NNW 15 22 8 12 - - 0.0
30/02:00pm 15.3 9.9 -1.7 31 6.9 NNW 17 28 9 15 - - 0.0
30/01:30pm 15.6 10.7 -0.2 34 6.7 NW 15 24 8 13 - - 0.0
30/01:00pm 15.7 10.0 -0.9 32 6.9 NW 19 26 10 14 - - 0.0
30/12:30pm 16.4 11.6 0.1 33 7.0 NW 15 22 8 12 - - 0.0
30/12:00pm 15.6 11.9 -0.2 34 6.7 NNW 9 22 5 12 - - 0.0
30/11:30am 15.3 12.4 2.8 43 5.6 NW 7 13 4 7 - - 0.0
30/11:00am 12.9 9.6 2.7 50 4.5 NW 9 15 5 8 - - 0.0
30/10:30am 11.5 8.4 3.5 58 3.5 NW 9 15 5 8 - - 0.0
30/10:00am 10.1 7.0 3.4 63 2.9 WNW 9 15 5 8 - - 0.0
30/09:30am 8.8 5.6 2.8 66 2.5 NW 9 13 5 7 - - 0.0
30/09:00am 7.9 5.5 4.1 77 1.6 NW 6 9 3 5 - - 0.0
30/08:30am 5.5 3.0 3.8 89 0.7 NW 6 11 3 6 - - 0.0
30/08:00am 4.1 1.6 4.0 99 0.0 N 6 9 3 5 - - 0.0
30/07:52am 3.4 0.6 3.3 99 0.0 N 7 9 4 5 - - 0.0
30/07:30am 1.8 0.0 1.5 98 0.1 CALM 0 0 0 0 - - 0.0
30/07:00am 0.8 -1.1 0.4 97 0.1 CALM 0 2 0 1 - - 0.0
30/06:30am 1.6 -0.6 1.3 98 0.1 N 2 7 1 4 - - 0.0
30/06:00am 1.4 -1.6 1.1 98 0.1 N 6 7 3 4 - - 0.0
30/05:59am 1.5 -1.4 1.2 98 0.1 N 6 7 3 4 - - 0.0
30/05:30am 2.0 0.3 1.7 98 0.1 CALM 0 0 0 0 - - 0.0
30/05:27am 2.0 0.3 1.7 98 0.1 CALM 0 0 0 0 - - 0.0
30/05:00am 1.6 -0.2 1.3 98 0.1 CALM 0 0 0 0 - - 0.0
30/04:31am 1.7 -0.1 1.3 97 0.2 CALM 0 0 0 0 - - 0.0
30/04:30am 1.7 -0.1 1.3 97 0.2 CALM 0 0 0 0 - - 0.0
30/04:28am 1.6 -0.2 1.3 98 0.1 CALM 0 0 0 0 - - 0.0
30/04:14am 2.4 0.7 2.1 98 0.1 CALM 0 0 0 0 - - 0.0
30/04:04am 2.5 0.9 2.2 98 0.1 CALM 0 0 0 0 - - 0.0
30/04:00am 2.5 0.9 2.2 98 0.1 CALM 0 0 0 0 - - 0.0
30/03:45am 2.8 1.2 2.5 98 0.1 CALM 0 0 0 0 - - 0.0
30/03:30am 2.5 0.8 2.1 97 0.2 CALM 0 0 0 0 - - 0.0
30/03:15am 2.9 1.3 2.5 97 0.2 CALM 0 0 0 0 - - 0.0
30/03:00am 2.8 1.2 2.4 97 0.2 CALM 0 0 0 0 - - 0.0
30/02:55am 3.0 1.4 2.6 97 0.2 CALM 0 0 0 0 - - 0.0
30/02:30am 2.8 1.2 2.4 97 0.2 CALM 0 0 0 0 - - 0.0
30/02:26am 2.7 1.1 2.3 97 0.2 CALM 0 0 0 0 - - 0.0
30/02:00am 3.5 2.0 3.2 98 0.1 CALM 0 0 0 0 - - 0.0
30/01:30am 3.7 2.3 3.3 97 0.2 CALM 0 0 0 0 - - 0.0
30/01:00am 3.9 2.5 3.6 98 0.1 CALM 0 0 0 0 - - 0.0
30/12:30am 4.1 2.7 3.7 97 0.2 CALM 0 0 0 0 - - 0.0
30/12:00am 4.3 2.9 3.7 96 0.2 CALM 0 0 0 0 - - 0.0
 
Date/Time
EST
Temp
°C
App
Temp
°C
Dew
Point
°C
Rel
Hum
%
Delta-T
°C
Wind Press
QNH
hPa
Press
MSL
hPa
Rain since
9am
mm
Dir  Spd
km/h
Gust
km/h
Spd
kts
Gust
kts
29/11:43pm 4.2 2.8 3.6 96 0.2 CALM 0 0 0 0 - - 0.0
29/11:41pm 4.2 2.8 3.6 96 0.2 CALM 0 0 0 0 - - 0.0
29/11:30pm 4.5 3.2 3.9 96 0.3 CALM 0 0 0 0 - - 0.0
29/11:20pm 4.6 3.3 4.0 96 0.3 CALM 0 0 0 0 - - 0.0
29/11:16pm 4.7 3.4 4.3 97 0.2 CALM 0 0 0 0 - - 0.0
29/11:00pm 4.8 3.5 4.2 96 0.3 CALM 0 0 0 0 - - 0.0
29/10:53pm 4.7 3.4 4.0 95 0.3 CALM 0 0 0 0 - - 0.0
29/10:30pm 5.0 3.8 4.4 96 0.3 CALM 0 0 0 0 - - 0.0
29/10:19pm 5.0 3.7 4.3 95 0.3 CALM 0 0 0 0 - - 0.0
29/10:00pm 5.1 3.9 4.4 95 0.3 CALM 0 0 0 0 - - 0.0
29/09:30pm 5.7 4.6 5.0 95 0.3 CALM 0 0 0 0 - - 0.0
29/09:27pm 6.0 4.9 5.3 95 0.3 CALM 0 0 0 0 - - 0.0
29/09:08pm 5.5 4.3 4.5 93 0.4 CALM 0 0 0 0 - - 0.0
29/09:00pm 5.7 4.5 4.7 93 0.4 CALM 0 0 0 0 - - 0.0
29/08:30pm 6.3 5.2 5.1 92 0.5 CALM 0 0 0 0 - - 0.0
29/08:00pm 6.2 5.0 4.5 89 0.7 CALM 0 0 0 0 - - 0.0
29/07:30pm 6.7 5.5 4.7 87 0.9 CALM 0 0 0 0 - - 0.0
29/07:00pm 7.5 6.4 5.3 86 1.0 CALM 0 0 0 0 - - 0.0
29/06:30pm 7.8 6.5 4.2 78 1.6 CALM 0 0 0 0 - - 0.0
29/06:00pm 9.0 7.8 4.4 73 2.0 CALM 0 0 0 0 - - 0.0
29/05:30pm 10.3 9.1 4.7 68 2.5 CALM 0 0 0 0 - - 0.0
29/05:00pm 12.7 11.3 3.4 53 4.1 CALM 0 0 0 0 - - 0.0
29/04:30pm 16.1 13.5 3.2 42 5.9 NNE 6 7 3 4 - - 0.0
29/04:00pm 17.0 14.1 2.6 38 6.5 NNE 7 9 4 5 - - 0.0
29/03:30pm 19.1 17.6 2.9 34 7.5 CALM 0 0 0 0 - - 0.0

Other Formats:

Comma delimited format used in spreadsheet applications
http://www.bom.gov.au/fwo/IDN60801/IDN60801.94766.axf

JavaScript Object Notation format (JSON) in row-major order
http://www.bom.gov.au/fwo/IDN60801/IDN60801.94766.json